Time;durP1;ratioP1;P1;durP2;ratioP2;P2;SDS_P1;SDS_P2;PMS_P1;PMS_P2;Temp;Humidity;BMP_temperature;BMP_pressure;BME280_temperature;BME280_humidity;BME280_pressure;Samples;Min_cycle;Max_cycle;Signal;HPM_P1;HPM_P2
2022/04/17 00:00:00;;;;;;;3.78;2.75;;;;;;;10.06;55.90;101436.91;6277183;22;20099;-75
2022/04/17 00:02:26;;;;;;;4.68;3.42;;;;;;;9.99;56.62;101433.44;6276261;22;20028;-76
2022/04/17 00:04:53;;;;;;;8.23;4.40;;;;;;;9.93;56.80;101422.41;6275632;22;20010;-75
2022/04/17 00:07:19;;;;;;;7.18;4.25;;;;;;;9.93;57.16;101433.34;6273853;22;20439;-74
2022/04/17 00:09:44;;;;;;;6.75;4.35;;;;;;;9.88;57.28;101424.19;6277350;22;20010;-76
2022/04/17 00:12:11;;;;;;;5.50;3.63;;;;;;;9.83;57.38;101427.63;6278712;22;20477;-76
2022/04/17 00:14:40;;;;;;;4.45;2.92;;;;;;;9.83;57.39;101416.72;6279918;22;20007;-77
2022/04/17 00:17:06;;;;;;;3.72;2.92;;;;;;;9.73;57.34;101400.91;6254211;22;20034;-74
2022/04/17 00:19:32;;;;;;;4.63;2.40;;;;;;;9.74;56.93;101401.75;6201770;22;20007;-74
2022/04/17 00:21:58;;;;;;;3.60;2.53;;;;;;;9.70;57.64;101395.09;6224652;22;20318;-76
2022/04/17 00:24:26;;;;;;;5.57;3.08;;;;;;;9.75;57.55;101411.59;6272627;22;20081;-74
2022/04/17 00:26:53;;;;;;;3.55;2.67;;;;;;;9.70;57.09;101395.09;6244099;22;20046;-72
2022/04/17 00:29:20;;;;;;;3.95;3.08;;;;;;;9.69;57.80;101405.16;6244438;22;20012;-73
2022/04/17 00:31:47;;;;;;;5.03;3.10;;;;;;;9.68;57.34;101406.25;6194861;22;20008;-72
2022/04/17 00:34:13;;;;;;;4.50;3.38;;;;;;;9.60;58.48;101393.75;6247094;22;20008;-74
2022/04/17 00:36:41;;;;;;;3.28;2.67;;;;;;;9.53;58.63;101384.84;6196922;22;20508;-73
2022/04/17 00:39:09;;;;;;;4.40;2.45;;;;;;;9.61;58.49;101389.97;6246192;22;20087;-73
2022/04/17 00:41:37;;;;;;;5.07;2.63;;;;;;;9.63;58.09;101386.19;6222529;22;20008;-74
2022/04/17 00:44:12;;;;;;;3.40;2.20;;;;;;;9.66;58.11;101402.91;6226183;22;20003;-72
2022/04/17 00:46:39;;;;;;;3.92;2.70;;;;;;;9.61;58.13;101391.88;6160896;23;1243034;-73
2022/04/17 00:49:05;;;;;;;5.72;3.58;;;;;;;9.56;58.73;101406.25;6246060;23;20016;-74
2022/04/17 00:51:31;;;;;;;5.53;3.55;;;;;;;9.52;58.70;101398.72;6247240;23;20011;-73
2022/04/17 00:53:57;;;;;;;5.10;3.55;;;;;;;9.43;59.06;101390.91;6247203;23;20008;-73
2022/04/17 00:56:25;;;;;;;4.45;3.20;;;;;;;9.44;58.47;101392.53;6242990;23;20032;-73
2022/04/17 00:58:51;;;;;;;6.30;3.70;;;;;;;9.40;59.07;101387.78;6217124;23;20032;-74
2022/04/17 01:01:16;;;;;;;6.30;3.63;;;;;;;9.36;58.51;101375.69;6216349;23;20015;-74
2022/04/17 01:03:42;;;;;;;4.20;2.90;;;;;;;9.34;59.14;101380.56;6188741;23;20012;-74
2022/04/17 01:06:08;;;;;;;3.95;2.83;;;;;;;9.33;58.68;101384.34;6220606;23;20004;-73
2022/04/17 01:08:34;;;;;;;4.82;3.28;;;;;;;9.32;59.78;101377.25;6216354;23;20008;-72
2022/04/17 01:11:01;;;;;;;4.80;3.22;;;;;;;9.28;59.29;101368.66;6240512;23;20012;-73
2022/04/17 01:13:26;;;;;;;5.75;3.47;;;;;;;9.24;58.78;101371.06;6244835;23;20042;-73
2022/04/17 01:15:54;;;;;;;6.32;3.50;;;;;;;9.18;59.08;101361.03;6218326;23;20016;-72
2022/04/17 01:18:19;;;;;;;4.75;3.10;;;;;;;9.19;59.48;101360.00;6217416;23;20000;-72
2022/04/17 01:20:45;;;;;;;3.80;2.30;;;;;;;9.15;59.23;101356.06;6215304;23;20015;-74
2022/04/17 01:28:39;;;;;;;3.07;2.37;;;;;;;9.19;59.68;101361.91;6240321;23;20019;-72
2022/04/17 01:31:04;;;;;;;5.60;3.78;;;;;;;9.14;59.63;101348.97;6242621;23;20343;-72
2022/04/17 01:33:30;;;;;;;5.25;3.45;;;;;;;9.10;60.34;101347.75;6191225;23;20012;-74
2022/04/17 01:35:55;;;;;;;5.00;3.00;;;;;;;9.07;59.88;101346.31;6244221;23;20004;-73
2022/04/17 01:38:21;;;;;;;5.38;3.55;;;;;;;9.03;60.01;101342.38;6190577;23;20008;-74
2022/04/17 01:40:46;;;;;;;5.07;3.42;;;;;;;9.00;60.41;101328.41;6218356;23;20008;-74
2022/04/17 01:43:12;;;;;;;5.32;3.10;;;;;;;8.97;59.49;101320.69;6251690;23;20011;-72
2022/04/17 01:45:37;;;;;;;6.90;4.30;;;;;;;8.93;60.09;101324.94;6251047;23;20004;-73
2022/04/17 01:48:03;;;;;;;5.97;4.22;;;;;;;8.95;60.54;101328.25;6225603;22;20065;-73
2022/04/17 01:50:30;;;;;;;6.53;3.92;;;;;;;8.93;61.26;101325.75;6243893;23;20000;-73
2022/04/17 01:52:59;;;;;;;5.15;3.25;;;;;;;8.95;61.00;101328.25;6213759;23;20071;-75
2022/04/17 01:55:25;;;;;;;4.80;3.60;;;;;;;8.97;60.71;101326.97;6244673;23;20122;-73
2022/04/17 01:57:51;;;;;;;3.97;3.28;;;;;;;9.02;60.87;101323.53;6242452;23;20008;-74
2022/04/17 02:00:17;;;;;;;4.72;3.05;;;;;;;9.02;60.49;101318.06;6244861;23;20050;-74
2022/04/17 02:02:43;;;;;;;3.20;2.47;;;;;;;9.00;60.22;101309.31;6246517;23;20018;-73
2022/04/17 02:05:08;;;;;;;4.72;2.75;;;;;;;9.05;60.77;101307.53;6255338;23;20089;-74
2022/04/17 02:07:35;;;;;;;4.60;3.25;;;;;;;9.09;60.46;101307.88;6243522;23;20326;-74
2022/04/17 02:10:04;;;;;;;5.25;3.38;;;;;;;9.16;61.15;101297.69;6213256;23;20053;-75
2022/04/17 02:12:29;;;;;;;4.50;3.28;;;;;;;9.34;60.21;101299.47;6218586;23;20492;-75
2022/04/17 02:14:58;;;;;;;6.35;3.90;;;;;;;9.24;60.07;101301.97;6219778;23;20008;-73
2022/04/17 02:17:24;;;;;;;5.88;3.42;;;;;;;9.15;60.60;101301.47;6168258;23;20016;-74
2022/04/17 02:19:49;;;;;;;5.45;3.65;;;;;;;9.05;60.56;101296.63;6218607;23;20091;-73
2022/04/17 02:22:15;;;;;;;5.13;3.25;;;;;;;9.04;61.01;101294.13;6216063;23;20008;-74
2022/04/17 02:24:40;;;;;;;4.43;3.05;;;;;;;9.01;60.96;101283.66;6245953;23;20011;-76
2022/04/17 02:27:06;;;;;;;6.63;3.85;;;;;;;8.97;61.51;101282.50;6240982;23;20089;-75
2022/04/17 02:29:33;;;;;;;5.82;3.63;;;;;;;8.91;60.94;101268.72;6220842;23;20090;-75
2022/04/17 02:31:58;;;;;;;4.60;3.35;;;;;;;8.93;61.65;101275.84;6198873;23;20025;-76
2022/04/17 02:34:24;;;;;;;6.53;4.28;;;;;;;8.93;61.30;101251.28;6223681;23;20003;-76
2022/04/17 02:36:54;;;;;;;6.45;3.72;;;;;;;9.10;61.33;101271.34;6220531;23;20008;-72
2022/04/17 02:39:20;;;;;;;5.65;3.67;;;;;;;9.10;61.54;101282.28;6245621;23;20000;-73
2022/04/17 02:41:45;;;;;;;5.70;3.33;;;;;;;9.04;61.18;101272.31;6191892;23;20014;-72
2022/04/17 02:44:11;;;;;;;5.28;3.47;;;;;;;8.90;62.06;101256.13;6215192;23;20032;-73
2022/04/17 02:49:20;;;;;;;4.97;3.13;;;;;;;8.74;61.38;101256.81;6228342;23;20018;-72
2022/04/17 02:51:46;;;;;;;6.03;4.13;;;;;;;8.64;61.74;101256.53;6197831;23;20269;-70
2022/04/17 02:54:21;;;;;;;8.60;5.22;;;;;;;8.60;61.98;101266.25;6223417;23;20012;-70
2022/04/17 02:56:47;;;;;;;6.30;4.18;;;;;;;8.46;61.98;101255.53;6199409;23;20004;-71
2022/04/17 02:59:12;;;;;;;6.63;4.00;;;;;;;8.42;62.46;101254.31;6188298;23;20007;-72
2022/04/17 03:07:06;;;;;;;6.87;4.53;;;;;;;8.34;63.49;101252.75;6246495;23;20007;-72
2022/04/17 03:09:31;;;;;;;9.52;5.70;;;;;;;8.28;62.95;101250.09;6196148;23;20008;-72
2022/04/17 03:11:57;;;;;;;8.15;5.82;;;;;;;8.20;63.87;101246.63;6220320;23;20062;-73
2022/04/17 03:14:22;;;;;;;9.68;6.13;;;;;;;8.13;63.84;101242.34;6221921;23;20008;-73
2022/04/17 03:16:47;;;;;;;8.40;5.30;;;;;;;8.12;63.70;101244.25;6222698;23;20304;-74
2022/04/17 03:19:13;;;;;;;8.43;5.28;;;;;;;8.11;64.65;101242.56;6224604;23;20004;-74
2022/04/17 03:21:40;;;;;;;7.40;5.13;;;;;;;8.07;64.56;101235.09;6248982;23;20083;-75
2022/04/17 03:24:06;;;;;;;8.50;4.45;;;;;;;8.03;65.06;101240.16;6219635;23;20015;-75
2022/04/17 03:26:33;;;;;;;8.40;5.32;;;;;;;8.04;64.86;101231.78;6216693;23;20004;-75
2022/04/17 03:28:59;;;;;;;10.63;6.43;;;;;;;8.02;64.39;101239.31;6191645;23;20011;-75
2022/04/17 03:31:25;;;;;;;13.30;6.82;;;;;;;7.99;65.31;101233.53;6216598;23;20004;-74
2022/04/17 03:33:50;;;;;;;13.40;7.65;;;;;;;7.93;64.69;101238.00;6216190;23;20019;-73
2022/04/17 03:36:16;;;;;;;9.77;7.05;;;;;;;7.90;65.76;101234.88;6243334;23;20373;-74
2022/04/17 03:38:46;;;;;;;10.25;6.18;;;;;;;7.89;65.83;101233.22;6216997;23;20035;-76
2022/04/17 03:41:11;;;;;;;9.15;5.70;;;;;;;7.88;65.84;101220.66;6192300;23;20054;-73
2022/04/17 03:43:37;;;;;;;8.18;4.78;;;;;;;7.88;65.88;101226.09;6216067;23;20010;-75
2022/04/17 03:46:02;;;;;;;8.75;6.15;;;;;;;7.75;65.19;101206.13;6244494;22;20019;-75
2022/04/17 03:48:28;;;;;;;9.32;6.03;;;;;;;7.79;65.92;101220.16;6246891;22;20072;-74
2022/04/17 03:50:53;;;;;;;6.63;4.55;;;;;;;7.72;65.53;101211.22;6194367;22;20011;-74
2022/04/17 03:53:18;;;;;;;6.32;4.60;;;;;;;7.74;66.11;101214.53;6223336;22;20015;-74
2022/04/17 03:55:44;;;;;;;6.78;4.13;;;;;;;7.74;65.95;101218.09;6244677;22;20011;-75
2022/04/17 03:58:09;;;;;;;7.65;4.30;;;;;;;7.71;65.54;101209.53;6218626;22;20419;-75
2022/04/17 04:00:35;;;;;;;6.20;4.20;;;;;;;7.64;66.47;101193.31;6272297;22;20015;-73
2022/04/17 04:03:01;;;;;;;7.05;4.05;;;;;;;7.69;65.64;101201.59;6244560;22;20007;-76
2022/04/17 04:05:26;;;;;;;6.07;4.35;;;;;;;7.65;66.01;101200.41;6246123;22;20016;-75
2022/04/17 04:07:52;;;;;;;9.27;5.10;;;;;;;7.69;66.67;101201.59;6220214;22;20011;-75
2022/04/17 04:10:17;;;;;;;7.53;5.03;;;;;;;7.59;66.58;101191.25;6273295;22;20007;-75
2022/04/17 04:12:43;;;;;;;8.00;5.57;;;;;;;7.61;66.54;101193.78;6224050;22;20043;-74
2022/04/17 04:15:08;;;;;;;10.10;5.50;;;;;;;7.58;66.99;101195.03;6282222;22;20034;-76
2022/04/17 04:17:34;;;;;;;9.10;5.95;;;;;;;7.54;66.50;101187.56;6279439;22;20006;-74
2022/04/17 04:20:01;;;;;;;9.70;6.60;;;;;;;7.47;66.68;101185.72;6278127;22;20004;-76
2022/04/17 04:22:26;;;;;;;9.15;6.32;;;;;;;7.42;67.46;101180.16;6247198;22;20129;-75
2022/04/17 04:24:52;;;;;;;13.30;6.85;;;;;;;7.35;67.22;101179.38;6198767;22;20007;-75
2022/04/17 04:30:03;;;;;;;9.57;5.53;;;;;;;7.34;67.26;101183.16;6251381;22;20110;-73
2022/04/17 04:32:29;;;;;;;8.23;6.18;;;;;;;7.31;67.63;101179.00;6276769;22;20008;-75
2022/04/17 04:35:01;;;;;;;9.73;5.55;;;;;;;7.27;67.78;101176.97;6251265;22;20011;-75
2022/04/17 04:37:27;;;;;;;8.32;5.53;;;;;;;7.26;67.32;101176.13;6249784;22;20459;-75
2022/04/17 04:39:53;;;;;;;8.60;5.00;;;;;;;7.27;67.98;101174.22;6246395;22;20094;-75
2022/04/17 04:42:20;;;;;;;7.90;4.90;;;;;;;7.25;67.29;101174.47;6250301;22;20058;-77
2022/04/17 04:48:04;;;;;;;8.30;4.18;;;;;;;7.27;68.03;101180.53;6223123;22;20350;-75
2022/04/17 04:50:29;;;;;;;6.88;4.57;;;;;;;7.25;68.19;101173.66;6225358;22;20007;-75
2022/04/17 04:52:55;;;;;;;7.88;5.38;;;;;;;7.25;67.25;101174.47;6199731;22;20011;-74
2022/04/17 04:55:20;;;;;;;12.40;6.60;;;;;;;7.22;68.36;101163.22;6277664;22;20003;-72
2022/04/17 04:57:45;;;;;;;10.00;5.80;;;;;;;7.29;67.64;101170.25;6225792;22;20008;-73
2022/04/17 05:00:13;;;;;;;9.50;5.15;;;;;;;7.30;67.81;101171.91;6277603;22;20022;-73
2022/04/17 05:02:39;;;;;;;6.78;4.80;;;;;;;7.32;68.17;101174.41;6226942;22;20008;-73
2022/04/17 05:05:06;;;;;;;10.43;5.38;;;;;;;7.32;67.91;101164.34;6228305;22;20361;-73
2022/04/17 05:07:31;;;;;;;11.73;5.85;;;;;;;7.33;68.84;101173.34;6287221;22;20318;-72
2022/04/17 05:09:56;;;;;;;10.15;5.20;;;;;;;7.29;68.59;101169.41;6288603;22;20008;-73
2022/04/17 05:12:22;;;;;;;11.02;6.60;;;;;;;7.28;68.33;101167.75;6254051;22;20000;-72
2022/04/17 05:14:48;;;;;;;11.68;6.82;;;;;;;7.35;68.35;101168.50;6226498;22;20014;-72
2022/04/17 05:17:13;;;;;;;11.80;7.30;;;;;;;7.38;68.72;101162.59;6250562;22;20110;-72
2022/04/17 05:19:38;;;;;;;14.50;7.47;;;;;;;7.41;69.35;101172.22;6251556;22;20033;-72
2022/04/17 05:22:11;;;;;;;14.55;8.52;;;;;;;7.37;68.68;101155.50;6278391;22;20031;-73
2022/04/17 05:24:40;;;;;;;15.73;8.43;;;;;;;7.48;69.22;101167.53;6278341;22;20339;-72
2022/04/17 05:27:06;;;;;;;13.65;7.90;;;;;;;7.46;68.59;101154.16;6252854;22;20011;-72
2022/04/17 05:29:32;;;;;;;16.55;9.48;;;;;;;7.50;69.42;101149.91;6250495;22;20008;-72
2022/04/17 05:31:58;;;;;;;16.45;10.15;;;;;;;7.57;68.64;101159.88;6199799;22;20011;-71
2022/04/17 05:34:24;;;;;;;17.48;10.63;;;;;;;7.60;68.50;101160.25;6222240;22;20012;-72
2022/04/17 05:36:52;;;;;;;24.55;13.23;;;;;;;7.73;69.12;101163.88;6222355;22;20069;-71
2022/04/17 05:39:17;;;;;;;17.13;10.30;;;;;;;7.81;69.51;101175.28;6275866;22;20373;-71
2022/04/17 05:41:44;;;;;;;18.40;10.32;;;;;;;7.82;68.93;101168.75;6274182;22;20007;-72
2022/04/17 05:44:11;;;;;;;24.58;12.70;;;;;;;7.90;69.00;101170.38;6274412;22;20395;-72
2022/04/17 05:46:37;;;;;;;22.00;12.05;;;;;;;7.97;69.43;101164.81;6274907;22;20016;-73
2022/04/17 05:49:03;;;;;;;21.30;10.30;;;;;;;8.04;68.52;101168.28;6221422;22;20019;-73
2022/04/17 05:51:29;;;;;;;15.20;8.40;;;;;;;8.13;68.85;101164.19;6250703;22;20011;-74
2022/04/17 05:53:55;;;;;;;13.93;8.35;;;;;;;8.18;68.00;101161.56;6223847;22;20065;-72
2022/04/17 05:56:20;;;;;;;15.65;8.48;;;;;;;8.23;68.35;101151.88;6276501;22;20016;-73
2022/04/17 05:59:42;;;;;;;;;;;;;;;;;;;;;
2022/04/17 06:02:13;;;;;;;18.10;9.63;;;;;;;8.34;68.13;101148.38;6145620;23;20093;-74
2022/04/17 06:04:38;;;;;;;17.25;9.25;;;;;;;8.38;68.29;101128.59;6245404;22;20011;-74
2022/04/17 06:07:04;;;;;;;16.42;9.85;;;;;;;8.58;68.01;101138.34;6228311;22;20007;-72
2022/04/17 06:09:32;;;;;;;22.85;11.45;;;;;;;8.65;67.06;101138.25;6279736;22;20010;-74
2022/04/17 06:14:43;;;;;;;18.13;10.20;;;;;;;8.71;66.89;101131.84;6281670;22;20349;-72
2022/04/17 06:17:12;;;;;;;14.77;9.07;;;;;;;8.86;67.42;101134.09;6254989;22;20027;-74
2022/04/17 06:19:40;;;;;;;22.08;10.05;;;;;;;8.86;66.66;101121.31;6255307;22;20012;-74
2022/04/17 06:22:26;;;;;;;15.57;9.23;;;;;;;8.97;67.08;101124.28;6229365;22;20014;-74
2022/04/17 06:25:22;;;;;;;23.30;11.68;;;;;;;8.97;66.37;101097.00;6257455;22;20016;-73
2022/04/17 06:28:25;;;;;;;14.82;9.57;;;;;;;9.28;66.38;101136.69;6250328;22;20038;-74
2022/04/17 06:34:56;;;;;;;;;;;;;;;;;;;;;
2022/04/17 06:38:15;;;;;;;21.77;12.00;;;;;;;9.87;65.79;101130.22;6279935;22;20049;-75
2022/04/17 06:41:18;;;;;;;24.75;13.13;;;;;;;9.82;65.03;101091.88;6282312;22;20000;-73
2022/04/17 06:44:13;;;;;;;25.63;12.75;;;;;;;10.19;64.68;101129.69;6261133;22;20003;-73
2022/04/17 06:47:17;;;;;;;26.55;13.70;;;;;;;10.32;63.99;101123.91;6236391;22;20042;-75
2022/04/17 06:50:23;;;;;;;;;;;;;;;;;;;;;
2022/04/17 06:53:38;;;;;;;23.98;12.40;;;;;;;10.49;63.50;101096.63;6255811;22;20387;-73
2022/04/17 06:56:12;;;;;;;22.48;12.73;;;;;;;10.84;63.13;101131.06;6278577;22;20000;-72
2022/04/17 06:58:48;;;;;;;;;;;;;;;;;;;;;
2022/04/17 07:01:24;;;;;;;24.58;12.68;;;;;;;10.90;62.59;101105.44;6285562;22;20031;-74
2022/04/17 07:04:00;;;;;;;21.02;12.48;;;;;;;11.10;62.91;101123.25;6263243;22;20004;-76
2022/04/17 07:06:33;;;;;;;28.38;14.85;;;;;;;10.99;62.95;101101.22;6238471;22;20038;-77
2022/04/17 07:09:01;;;;;;;33.22;16.98;;;;;;;11.21;62.84;101135.16;6288877;22;20383;-73
2022/04/17 07:11:27;;;;;;;26.92;15.70;;;;;;;10.98;62.59;101105.03;6215275;22;20034;-75
2022/04/17 07:13:53;;;;;;;36.42;19.42;;;;;;;11.02;63.10;101109.97;6290083;22;19999;-75
2022/04/17 07:16:18;;;;;;;28.45;16.50;;;;;;;11.00;63.67;101113.78;6233260;22;20018;-74
2022/04/17 07:18:53;;;;;;;34.03;17.90;;;;;;;11.25;63.35;101134.41;6254435;22;20004;-75
2022/04/17 07:21:21;;;;;;;27.60;13.75;;;;;;;11.42;62.86;101119.81;6225729;22;20011;-74
2022/04/17 07:24:12;;;;;;;28.42;15.57;;;;;;;11.72;62.41;101121.28;6258792;22;20087;-74
2022/04/17 07:27:01;;;;;;;30.05;17.30;;;;;;;11.79;62.06;101119.16;6259466;22;20373;-75
2022/04/17 07:29:27;;;;;;;39.78;21.27;;;;;;;11.84;62.29;101110.97;6251221;22;20019;-74
2022/04/17 07:31:53;;;;;;;36.30;18.27;;;;;;;11.96;62.57;101114.44;6252806;22;20007;-74
2022/04/17 07:34:20;;;;;;;34.95;19.35;;;;;;;12.14;62.24;101126.13;6250413;22;20202;-75
2022/04/17 07:36:55;;;;;;;31.05;17.60;;;;;;;12.28;62.54;101121.88;6252510;22;20326;-74
2022/04/17 07:39:22;;;;;;;27.15;15.35;;;;;;;12.56;61.66;101100.72;6250647;22;20000;-74
2022/04/17 07:41:48;;;;;;;24.90;15.07;;;;;;;12.98;61.06;101121.88;6225278;22;20019;-75
2022/04/17 07:44:14;;;;;;;24.63;14.30;;;;;;;13.01;60.42;101091.13;6249635;22;20220;-76
2022/04/17 07:46:41;;;;;;;33.28;18.65;;;;;;;13.23;60.04;101112.13;6239145;23;20028;-75
2022/04/17 07:49:06;;;;;;;34.13;17.98;;;;;;;13.35;59.97;101121.00;6217036;23;20057;-77
2022/04/17 07:51:32;;;;;;;33.60;17.65;;;;;;;13.41;59.22;101116.34;6194065;23;20016;-75
2022/04/17 07:53:57;;;;;;;30.48;16.67;;;;;;;13.51;59.88;101116.38;6194761;23;20415;-75
2022/04/17 07:56:23;;;;;;;31.02;18.10;;;;;;;13.71;58.88;101110.13;6191996;23;20091;-77
2022/04/17 07:58:48;;;;;;;29.42;16.55;;;;;;;13.79;58.84;101104.09;6218939;23;20354;-75
2022/04/17 08:01:17;;;;;;;35.63;17.45;;;;;;;14.02;58.63;101114.84;6219777;23;20008;-75
2022/04/17 08:06:10;;;;;;;25.30;15.02;;;;;;;14.42;57.32;101097.56;6245380;23;20015;-77
2022/04/17 08:08:37;;;;;;;24.90;15.80;;;;;;;14.75;56.59;101100.06;6218889;23;20058;-75
2022/04/17 08:11:07;;;;;;;29.85;17.08;;;;;;;14.86;55.52;101095.34;6217192;23;20010;-74
2022/04/17 08:13:34;;;;;;;26.73;16.10;;;;;;;14.80;55.70;101092.59;6190957;23;20445;-75
2022/04/17 08:16:00;;;;;;;24.80;13.52;;;;;;;15.25;55.76;101086.44;6215272;23;20008;-73
2022/04/17 08:18:28;;;;;;;27.45;14.77;;;;;;;15.52;55.33;101086.88;6216211;23;20032;-73
2022/04/17 08:20:54;;;;;;;18.15;10.50;;;;;;;16.10;54.49;101095.66;6241965;23;20099;-72
2022/04/17 08:23:19;;;;;;;27.33;15.55;;;;;;;16.11;52.99;101098.13;6215975;23;20725;-72
2022/04/17 08:25:46;;;;;;;26.15;16.15;;;;;;;16.00;52.75;101091.03;6216520;23;20010;-74
2022/04/17 08:28:12;;;;;;;25.42;12.82;;;;;;;16.28;53.14;101078.41;6220695;23;20008;-75
2022/04/17 08:30:38;;;;;;;26.08;14.65;;;;;;;16.64;51.48;101077.25;6220156;23;20004;-74
2022/04/17 08:33:06;;;;;;;23.85;13.77;;;;;;;17.00;51.15;101071.41;6220503;23;20000;-74
2022/04/17 08:35:35;;;;;;;26.65;12.70;;;;;;;17.61;50.11;101081.69;6248435;23;20004;-74
2022/04/17 08:38:01;;;;;;;22.05;11.75;;;;;;;17.91;49.08;101064.97;6197206;23;20004;-74
2022/04/17 08:40:49;;;;;;;23.65;12.68;;;;;;;18.18;47.17;101080.88;6222083;23;20008;-76
2022/04/17 08:43:18;;;;;;;22.67;11.38;;;;;;;18.25;47.24;101059.19;6248289;23;20489;-75
2022/04/17 08:45:46;;;;;;;24.38;13.20;;;;;;;18.64;46.15;101071.75;6220304;23;20390;-75
2022/04/17 08:48:13;;;;;;;18.85;10.60;;;;;;;18.56;44.93;101069.72;6275259;22;20137;-79
2022/04/17 08:50:39;;;;;;;16.83;9.32;;;;;;;18.35;45.16;101049.03;6250392;22;20141;-79
2022/04/17 08:53:05;;;;;;;16.40;9.98;;;;;;;18.23;45.25;101063.38;6227914;22;20007;-76
2022/04/17 08:55:31;;;;;;;19.48;10.38;;;;;;;18.33;45.03;101054.06;6274994;22;20007;-71
2022/04/17 08:57:57;;;;;;;15.02;9.60;;;;;;;18.46;45.55;101059.63;6277131;22;20030;-76
2022/04/17 09:00:22;;;;;;;17.35;10.05;;;;;;;18.40;44.87;101048.94;6278229;22;20004;-74
2022/04/17 09:02:48;;;;;;;13.32;7.70;;;;;;;18.49;45.75;101047.94;6247914;22;20090;-74
2022/04/17 09:05:17;;;;;;;10.88;7.03;;;;;;;18.86;43.22;101048.13;6250882;22;20019;-76
2022/04/17 09:07:49;;;;;;;7.57;5.57;;;;;;;18.84;41.75;101050.38;6284660;22;20018;-75
2022/04/17 09:10:24;;;;;;;9.30;5.10;;;;;;;18.84;41.31;101047.59;6284828;22;19996;-76
2022/04/17 09:12:52;;;;;;;6.10;4.20;;;;;;;18.86;41.80;101039.81;6255486;22;20007;-77
2022/04/17 09:15:18;;;;;;;7.47;4.45;;;;;;;18.87;40.71;101041.47;6271215;22;20371;-80
2022/04/17 09:17:43;;;;;;;10.88;5.00;;;;;;;18.80;40.54;101035.47;6249474;22;20004;-77
2022/04/17 09:20:18;;;;;;;8.85;4.93;;;;;;;18.51;41.19;101030.22;6249759;22;20429;-74
2022/04/17 09:22:51;;;;;;;5.32;3.30;;;;;;;18.58;41.51;101028.69;6275316;22;20101;-73
2022/04/17 09:25:25;;;;;;;7.88;4.28;;;;;;;18.79;41.57;101031.91;6275545;22;20000;-73
2022/04/17 09:27:54;;;;;;;6.90;4.40;;;;;;;18.74;40.87;101026.44;6248830;22;20361;-73
2022/04/17 09:30:28;;;;;;;9.93;3.50;;;;;;;18.68;41.27;101027.66;6249042;22;20081;-73
2022/04/17 09:32:55;;;;;;;6.22;3.00;;;;;;;18.63;41.24;101020.28;6278655;22;20083;-72
2022/04/17 09:35:27;;;;;;;6.53;2.58;;;;;;;18.71;40.38;101023.47;6276633;22;20022;-71
2022/04/17 09:38:10;;;;;;;3.90;1.95;;;;;;;18.72;40.19;101016.78;6246207;22;20031;-73
2022/04/17 09:40:37;;;;;;;5.50;1.73;;;;;;;18.77;38.94;101022.25;6216220;22;20350;-74
2022/04/17 09:43:16;;;;;;;5.10;1.70;;;;;;;18.82;38.63;101013.81;6248895;22;20007;-73
2022/04/17 09:46:04;;;;;;;2.95;1.73;;;;;;;18.77;38.03;101014.75;6279043;22;20004;-74
2022/04/17 09:48:40;;;;;;;2.20;1.38;;;;;;;18.78;38.60;101010.03;6251585;22;20721;-73
2022/04/17 09:51:22;;;;;;;3.38;1.55;;;;;;;18.91;38.40;101020.34;6273960;22;20010;-74
2022/04/17 09:53:58;;;;;;;2.28;1.40;;;;;;;18.95;38.19;101010.28;6278821;22;19999;-72
2022/04/17 09:56:40;;;;;;;4.20;1.20;;;;;;;19.16;37.72;101023.72;6275149;22;20008;-72
2022/04/17 09:59:19;;;;;;;2.08;1.35;;;;;;;18.92;36.67;101016.41;6249563;22;20019;-74
2022/04/17 10:01:47;;;;;;;2.10;1.38;;;;;;;18.89;37.62;101010.69;6250986;22;20023;-74
2022/04/17 10:04:14;;;;;;;2.80;1.77;;;;;;;18.91;37.49;101003.69;6277087;22;20079;-75
2022/04/17 10:06:39;;;;;;;2.97;1.33;;;;;;;19.18;37.10;101000.06;6250762;22;20011;-75
2022/04/17 10:09:05;;;;;;;3.10;1.88;;;;;;;19.30;36.57;100999.56;6250842;22;20004;-75
2022/04/17 10:11:32;;;;;;;1.83;1.20;;;;;;;19.42;35.81;101006.50;6277238;22;20008;-74
2022/04/17 10:13:59;;;;;;;2.38;1.25;;;;;;;19.44;36.14;100987.59;6252341;22;20023;-75
2022/04/17 10:16:28;;;;;;;2.10;1.33;;;;;;;19.68;35.92;100982.59;6228030;22;20091;-73
2022/04/17 10:18:54;;;;;;;1.60;1.17;;;;;;;20.04;34.90;100983.69;6282403;22;20075;-74
2022/04/17 10:21:23;;;;;;;3.00;1.00;;;;;;;20.45;34.67;100965.13;6259436;22;20023;-74
2022/04/17 10:23:56;;;;;;;1.85;1.30;;;;;;;21.28;33.84;100981.09;6285226;22;20007;-74
2022/04/17 10:26:23;;;;;;;1.10;0.98;;;;;;;21.90;32.25;100968.03;6282713;22;20004;-73
2022/04/17 10:28:55;;;;;;;1.65;1.10;;;;;;;22.39;31.24;100974.16;6258869;22;20007;-75
2022/04/17 10:31:21;;;;;;;2.92;1.02;;;;;;;22.77;30.16;100961.38;6254036;22;20491;-74
2022/04/17 10:34:32;;;;;;;1.33;1.17;;;;;;;23.07;29.50;100956.63;6203641;22;20027;-73
2022/04/17 10:37:07;;;;;;;2.10;1.20;;;;;;;23.72;28.58;100950.69;6291886;22;20010;-73
2022/04/17 10:39:45;;;;;;;1.60;1.15;;;;;;;24.62;27.16;100959.47;6292455;22;19995;-72
2022/04/17 10:42:11;;;;;;;3.20;1.33;;;;;;;25.50;26.12;100950.59;6264055;22;19996;-73
2022/04/17 10:44:41;;;;;;;1.60;1.10;;;;;;;26.52;25.57;100942.91;6289040;22;20038;-73
2022/04/17 10:47:16;;;;;;;1.45;1.08;;;;;;;27.99;24.07;100956.63;6227917;22;20024;-74
2022/04/17 10:49:56;;;;;;;1.98;1.27;;;;;;;28.79;22.15;100953.22;6252799;22;20020;-73
2022/04/17 10:52:31;;;;;;;2.88;1.20;;;;;;;30.03;19.98;100943.97;6228430;22;20007;-73
2022/04/17 10:55:07;;;;;;;2.05;1.25;;;;;;;30.76;19.47;100946.22;6253792;22;20007;-73
2022/04/17 10:57:45;;;;;;;2.58;1.10;;;;;;;31.31;18.88;100934.06;6279271;22;20069;-73
2022/04/17 11:00:36;;;;;;;1.13;0.93;;;;;;;32.11;18.02;100946.44;6277102;22;20015;-73
2022/04/17 11:03:09;;;;;;;7.03;0.90;;;;;;;32.65;17.06;100954.16;6279929;22;20014;-73
2022/04/17 11:08:25;;;;;;;1.38;1.10;;;;;;;33.16;15.88;100944.38;6280677;22;20019;-74
2022/04/17 11:11:11;;;;;;;3.28;1.30;;;;;;;33.11;15.21;100946.84;6250672;22;20027;-74
2022/04/17 11:13:36;;;;;;;2.13;1.00;;;;;;;32.65;15.64;100931.50;6275923;22;20006;-76
2022/04/17 11:16:06;;;;;;;1.25;1.00;;;;;;;33.34;15.33;100926.53;6277833;22;20008;-74
2022/04/17 11:18:31;;;;;;;3.63;1.10;;;;;;;34.43;14.29;100910.47;6276594;22;20022;-75
2022/04/17 11:21:02;;;;;;;2.30;1.23;;;;;;;35.39;12.44;100918.41;6277500;22;20423;-75
2022/04/17 11:23:49;;;;;;;2.20;1.30;;;;;;;35.57;11.29;100923.84;6274734;22;20056;-76
2022/04/17 11:26:15;;;;;;;1.75;1.15;;;;;;;36.20;11.19;100908.28;6270154;22;20001;-73
2022/04/17 11:28:41;;;;;;;3.58;1.40;;;;;;;36.13;10.36;100923.44;6212671;22;20094;-76
2022/04/17 11:31:07;;;;;;;2.92;1.40;;;;;;;37.08;10.54;100920.53;6276064;22;20350;-75
2022/04/17 11:33:32;;;;;;;1.58;0.90;;;;;;;37.94;9.29;100941.53;6250713;22;20018;-76
2022/04/17 11:36:11;;;;;;;1.95;1.10;;;;;;;38.11;9.81;100893.00;6272613;22;20067;-75
2022/04/17 11:39:32;;;;;;;;;;;;;;;;;;;;;
2022/04/17 11:42:28;;;;;;;1.65;0.75;;;;;;;38.94;9.33;100857.34;6154150;23;20563;-75
2022/04/17 11:45:49;;;;;;;1.17;0.82;;;;;;;39.19;9.14;100890.13;6041455;23;20139;-70
2022/04/17 11:48:33;;;;;;;3.13;1.00;;;;;;;39.55;8.60;100878.41;6049949;23;20075;-73
2022/04/17 11:51:18;;;;;;;2.45;0.93;;;;;;;38.68;8.35;100862.97;6098211;23;20103;-72
2022/04/17 11:53:51;;;;;;;1.23;0.82;;;;;;;36.68;9.73;100859.44;6145471;23;20384;-72
2022/04/17 11:56:49;;;;;;;1.15;0.70;;;;;;;37.12;10.23;100864.25;6123984;23;20503;-69
2022/04/17 11:59:16;;;;;;;2.50;0.98;;;;;;;38.59;8.96;100865.66;6111436;23;20010;-71
2022/04/17 12:01:42;;;;;;;1.42;0.80;;;;;;;38.23;8.39;100883.75;6099586;23;20556;-72
2022/04/17 12:04:19;;;;;;;0.60;0.57;;;;;;;37.43;8.66;100879.09;6125376;23;20013;-72
2022/04/17 12:06:45;;;;;;;1.20;0.70;;;;;;;38.01;8.85;100878.56;6272064;22;20014;-72
2022/04/17 12:09:11;;;;;;;1.70;0.85;;;;;;;37.10;9.24;100872.47;6275027;22;20028;-71
2022/04/17 12:11:39;;;;;;;1.08;0.80;;;;;;;36.05;9.39;100867.88;6272901;22;20283;-71
2022/04/17 12:14:05;;;;;;;2.30;0.80;;;;;;;36.36;9.59;100859.22;6247926;22;20003;-71
2022/04/17 12:16:30;;;;;;;1.23;0.90;;;;;;;37.70;8.61;100881.72;6245593;22;20492;-72